Time;durP1;ratioP1;P1;durP2;ratioP2;P2;SDS_P1;SDS_P2;PMS_P1;PMS_P2;Temp;Humidity;BMP_temperature;BMP_pressure;BME280_temperature;BME280_humidity;BME280_pressure;Samples;Min_cycle;Max_cycle;Signal;HPM_P1;HPM_P2
2022/04/02 00:00:17;;;;;;;23.67;12.32;;;16.20;66.40;;;;;;5002765;28;20085;-66
2022/04/02 00:02:45;;;;;;;17.77;10.48;;;16.20;67.20;;;;;;5002808;28;20045;-65
2022/04/02 00:05:11;;;;;;;25.77;11.32;;;16.30;67.30;;;;;;5002722;28;20073;-67
2022/04/02 00:07:37;;;;;;;19.95;11.80;;;16.30;67.20;;;;;;5002755;28;20536;-67
2022/04/02 00:10:05;;;;;;;25.70;11.43;;;16.30;67.20;;;;;;5002680;28;20038;-66
2022/04/02 00:12:32;;;;;;;24.05;11.75;;;16.30;66.80;;;;;;5002674;28;20106;-66
2022/04/02 00:14:57;;;;;;;21.63;11.65;;;16.30;66.60;;;;;;5002379;28;20058;-65
2022/04/02 00:17:24;;;;;;;19.90;11.63;;;16.30;66.50;;;;;;5002578;28;20095;-65
2022/04/02 00:19:49;;;;;;;20.48;11.30;;;16.30;66.40;;;;;;5002322;28;20365;-66
2022/04/02 00:22:16;;;;;;;20.60;11.48;;;16.30;66.20;;;;;;5002415;28;20037;-66
2022/04/02 00:24:42;;;;;;;16.08;11.35;;;16.20;65.20;;;;;;5002410;28;20341;-66
2022/04/02 00:27:09;;;;;;;18.55;11.52;;;16.20;65.70;;;;;;5002386;28;20037;-66
2022/04/02 00:29:38;;;;;;;21.58;11.80;;;16.20;66.30;;;;;;5002381;28;20507;-66
2022/04/02 00:32:05;;;;;;;;;;;16.20;66.90;;;;;;5002800;28;20026;-66
2022/04/02 00:34:30;;;;;;;20.00;10.57;;;16.10;66.70;;;;;;5002248;28;19916;-65
2022/04/02 00:36:56;;;;;;;22.80;10.93;;;16.20;66.50;;;;;;5002203;28;20038;-66
2022/04/02 00:39:22;;;;;;;18.70;11.23;;;16.20;66.50;;;;;;5002092;28;20029;-66
2022/04/02 00:41:47;;;;;;;25.08;11.75;;;16.20;66.70;;;;;;5002010;28;20317;-65
2022/04/02 00:44:17;;;;;;;21.00;11.43;;;16.20;66.50;;;;;;5002051;28;20322;-66
2022/04/02 00:46:44;;;;;;;15.82;10.30;;;16.20;66.50;;;;;;5001963;28;20085;-66
2022/04/02 00:49:12;;;;;;;19.73;11.00;;;16.30;66.80;;;;;;5001418;28;20325;-66
2022/04/02 00:51:42;;;;;;;23.05;11.20;;;16.30;66.80;;;;;;5001884;28;20081;-66
2022/04/02 00:54:11;;;;;;;18.55;11.48;;;16.30;66.80;;;;;;5001869;28;20034;-66
2022/04/02 00:56:40;;;;;;;;;;;16.30;66.50;;;;;;5002291;28;20509;-66
2022/04/02 00:59:08;;;;;;;15.90;11.30;;;16.30;66.70;;;;;;5001756;28;19920;-66
2022/04/02 01:01:35;;;;;;;23.27;12.05;;;16.20;66.40;;;;;;5001745;28;20061;-66
2022/04/02 01:04:02;;;;;;;17.10;11.02;;;16.20;66.30;;;;;;5001615;28;20033;-65
2022/04/02 01:06:29;;;;;;;18.42;10.02;;;16.10;66.10;;;;;;5001599;28;20026;-66
2022/04/02 01:08:55;;;;;;;17.67;10.15;;;16.10;66.60;;;;;;5001450;28;20093;-66
2022/04/02 01:11:21;;;;;;;14.75;11.18;;;16.10;66.70;;;;;;5001508;28;20041;-66
2022/04/02 01:13:46;;;;;;;20.67;12.27;;;16.00;70.00;;;;;;5000865;28;20254;-67
2022/04/02 01:16:12;;;;;;;21.30;11.50;;;16.00;70.10;;;;;;5001476;28;20030;-66
2022/04/02 01:18:38;;;;;;;21.35;11.13;;;16.00;66.80;;;;;;5001367;28;20038;-66
2022/04/02 01:21:04;;;;;;;16.65;10.90;;;16.10;66.70;;;;;;5001370;28;20051;-67
2022/04/02 01:23:30;;;;;;;13.23;9.68;;;16.20;66.50;;;;;;5001220;28;20038;-66
2022/04/02 01:25:59;;;;;;;21.92;10.32;;;16.20;66.60;;;;;;5001267;28;20027;-66
2022/04/02 01:28:33;;;;;;;19.63;10.63;;;16.20;66.30;;;;;;5001270;28;20501;-66
2022/04/02 01:31:01;;;;;;;21.17;10.88;;;16.20;66.80;;;;;;5001110;28;20270;-65
2022/04/02 01:33:27;;;;;;;16.35;10.80;;;16.20;67.10;;;;;;5001096;28;20037;-65
2022/04/02 01:36:00;;;;;;;15.35;10.40;;;16.20;66.20;;;;;;5001035;28;20026;-66
2022/04/02 01:38:27;;;;;;;14.30;10.13;;;16.20;66.30;;;;;;5000922;28;20089;-66
2022/04/02 01:40:53;;;;;;;18.20;11.70;;;16.20;66.70;;;;;;5001027;28;20033;-67
2022/04/02 01:43:19;;;;;;;19.05;11.35;;;16.10;66.20;;;;;;5000941;28;20041;-67
2022/04/02 01:45:45;;;;;;;19.70;12.10;;;16.10;69.00;;;;;;5000927;28;20027;-66
2022/04/02 01:48:11;;;;;;;17.73;10.82;;;16.10;66.20;;;;;;5000779;28;20090;-66
2022/04/02 01:50:36;;;;;;;18.85;11.60;;;16.10;66.70;;;;;;5000825;28;20030;-67
2022/04/02 01:53:02;;;;;;;18.67;11.32;;;16.10;66.70;;;;;;5000797;28;20126;-66
2022/04/02 01:55:28;;;;;;;17.02;10.32;;;16.20;66.70;;;;;;5000707;28;20199;-66
2022/04/02 01:57:54;;;;;;;16.63;11.02;;;16.20;66.60;;;;;;5000679;28;20052;-66
2022/04/02 02:00:21;;;;;;;20.40;10.88;;;16.20;66.60;;;;;;4999775;28;20199;-66
2022/04/02 02:02:47;;;;;;;17.33;10.75;;;16.20;66.50;;;;;;5000571;28;20022;-66
2022/04/02 02:05:13;;;;;;;19.95;12.20;;;16.20;66.30;;;;;;5000557;28;20094;-66
2022/04/02 02:07:39;;;;;;;18.23;12.00;;;16.20;66.00;;;;;;5000486;28;20017;-67
2022/04/02 02:10:05;;;;;;;12.82;10.10;;;16.20;66.30;;;;;;5000517;28;20396;-66
2022/04/02 02:12:31;;;;;;;20.55;12.20;;;16.20;66.20;;;;;;5000472;28;20050;-65
2022/04/02 02:14:57;;;;;;;20.08;11.63;;;16.10;68.80;;;;;;5000238;28;20402;-66
2022/04/02 02:17:23;;;;;;;15.07;10.43;;;16.00;68.80;;;;;;5000367;28;20090;-66
2022/04/02 02:19:48;;;;;;;19.17;10.98;;;16.00;66.30;;;;;;5000237;28;20040;-66
2022/04/02 02:22:14;;;;;;;16.85;10.70;;;16.10;66.50;;;;;;5000296;28;20030;-66
2022/04/02 02:24:40;;;;;;;16.48;10.98;;;16.10;66.20;;;;;;5000454;28;20376;-66
2022/04/02 02:27:08;;;;;;;16.00;10.85;;;16.10;66.00;;;;;;5000225;28;20509;-66
2022/04/02 02:29:34;;;;;;;19.48;10.45;;;16.10;66.10;;;;;;5000458;28;20097;-66
2022/04/02 02:31:59;;;;;;;18.38;9.63;;;16.00;66.50;;;;;;5000055;28;20034;-67
2022/04/02 02:37:10;;;;;;;20.42;11.05;;;16.10;66.50;;;;;;5000003;28;20371;-66
2022/04/02 02:39:36;;;;;;;15.38;10.07;;;16.20;66.50;;;;;;5000013;28;20041;-66
2022/04/02 02:42:02;;;;;;;16.63;10.73;;;16.20;66.10;;;;;;4999994;28;20037;-66
2022/04/02 02:44:28;;;;;;;15.30;9.82;;;16.20;66.30;;;;;;5000026;28;20072;-66
2022/04/02 02:46:54;;;;;;;21.20;10.77;;;16.20;66.50;;;;;;5000006;28;20093;-66
2022/04/02 02:49:19;;;;;;;16.65;10.50;;;16.20;66.30;;;;;;4999904;28;20089;-66
2022/04/02 02:51:45;;;;;;;17.95;10.90;;;16.10;66.20;;;;;;4999924;28;20095;-66
2022/04/02 02:54:11;;;;;;;18.00;10.98;;;16.10;65.90;;;;;;4999885;28;20027;-65
2022/04/02 02:56:37;;;;;;;17.30;10.68;;;16.10;65.80;;;;;;4999850;28;20034;-66
2022/04/02 02:59:04;;;;;;;14.70;10.57;;;16.20;66.10;;;;;;4999781;28;20088;-66
2022/04/02 03:01:30;;;;;;;17.90;10.50;;;16.10;66.70;;;;;;4999822;28;20023;-67
2022/04/02 03:03:56;;;;;;;15.52;11.15;;;16.00;66.20;;;;;;4999844;28;20634;-66
2022/04/02 03:06:22;;;;;;;20.13;10.50;;;16.00;66.40;;;;;;4999700;28;20026;-66
2022/04/02 03:08:48;;;;;;;15.57;9.32;;;16.00;66.20;;;;;;4999753;28;20026;-66
2022/04/02 03:11:14;;;;;;;15.05;10.40;;;16.10;66.30;;;;;;5000659;28;20065;-66
2022/04/02 03:13:40;;;;;;;15.25;10.77;;;16.10;65.90;;;;;;5003469;28;20310;-66
2022/04/02 03:16:06;;;;;;;18.15;12.32;;;16.10;65.80;;;;;;5003683;28;20030;-66
2022/04/02 03:18:32;;;;;;;17.23;11.02;;;16.20;66.30;;;;;;5003574;28;20042;-67
2022/04/02 03:20:58;;;;;;;17.05;9.82;;;16.20;66.20;;;;;;5003602;28;20398;-65
2022/04/02 03:23:24;;;;;;;17.88;10.85;;;16.20;65.90;;;;;;5003591;28;20030;-66
2022/04/02 03:25:49;;;;;;;18.35;10.98;;;16.10;66.00;;;;;;5003430;28;20034;-66
2022/04/02 03:28:15;;;;;;;14.70;10.20;;;16.10;65.40;;;;;;5003477;28;20089;-66
2022/04/02 03:30:41;;;;;;;15.77;10.90;;;16.10;65.70;;;;;;5003419;28;20073;-66
2022/04/02 03:33:08;;;;;;;16.15;10.07;;;16.10;65.50;;;;;;5003317;28;20227;-66
2022/04/02 03:35:34;;;;;;;17.95;11.73;;;16.10;66.70;;;;;;5003516;28;20088;-66
2022/04/02 03:38:00;;;;;;;14.85;9.93;;;16.00;65.90;;;;;;5003154;28;20314;-66
2022/04/02 03:40:26;;;;;;;19.25;11.50;;;16.10;65.80;;;;;;5003172;28;20037;-66
2022/04/02 03:42:53;;;;;;;14.52;10.07;;;16.10;65.90;;;;;;5003232;28;20037;-67
2022/04/02 03:45:20;;;;;;;18.50;10.77;;;16.10;65.50;;;;;;5003115;28;20033;-66
2022/04/02 03:47:47;;;;;;;17.33;11.40;;;16.20;65.70;;;;;;5003143;28;20018;-66
2022/04/02 03:50:13;;;;;;;20.00;9.88;;;16.20;65.90;;;;;;5003286;28;20026;-66
2022/04/02 03:52:40;;;;;;;15.02;10.25;;;16.10;65.70;;;;;;5002971;28;20022;-67
2022/04/02 03:55:06;;;;;;;13.45;9.15;;;16.10;66.00;;;;;;5002927;28;20233;-66
2022/04/02 03:57:34;;;;;;;15.65;11.55;;;16.20;65.80;;;;;;5002837;28;20026;-65
2022/04/02 04:00:00;;;;;;;15.90;10.85;;;16.10;65.80;;;;;;5002837;28;20041;-66
2022/04/02 04:02:26;;;;;;;17.80;10.93;;;16.00;68.30;;;;;;5002816;28;20037;-66
2022/04/02 04:04:52;;;;;;;20.85;11.73;;;15.90;69.00;;;;;;5002831;28;20022;-66
2022/04/02 04:07:19;;;;;;;17.02;11.00;;;15.90;69.30;;;;;;5002607;28;20321;-66
2022/04/02 04:09:45;;;;;;;17.30;10.10;;;15.90;65.40;;;;;;5002781;28;20030;-66
2022/04/02 04:12:11;;;;;;;17.77;9.93;;;16.00;65.20;;;;;;5002674;28;20050;-66
2022/04/02 04:14:37;;;;;;;14.95;10.48;;;16.00;65.30;;;;;;5002447;28;20104;-67
2022/04/02 04:17:03;;;;;;;16.70;9.88;;;16.00;65.70;;;;;;5002582;28;20092;-66
2022/04/02 04:19:29;;;;;;;14.95;10.23;;;16.00;65.80;;;;;;5002679;28;20077;-66
2022/04/02 04:21:55;;;;;;;14.32;9.98;;;16.00;65.70;;;;;;5002522;28;20089;-66
2022/04/02 04:24:21;;;;;;;17.23;10.77;;;16.10;65.90;;;;;;5001638;28;20022;-66
2022/04/02 04:26:47;;;;;;;15.65;10.00;;;16.10;65.90;;;;;;5002358;28;20025;-67
2022/04/02 04:29:13;;;;;;;16.00;9.57;;;16.10;65.50;;;;;;5002420;28;20472;-66
2022/04/02 04:31:39;;;;;;;15.77;10.60;;;16.10;65.60;;;;;;5002245;28;20034;-66
2022/04/02 04:34:05;;;;;;;15.98;10.88;;;16.10;65.40;;;;;;5002497;28;20077;-66
2022/04/02 04:36:31;;;;;;;17.85;10.77;;;16.10;65.70;;;;;;5002211;28;20089;-66
2022/04/02 04:38:57;;;;;;;13.38;9.90;;;16.10;65.50;;;;;;5002100;28;20034;-66
2022/04/02 04:41:23;;;;;;;13.73;10.57;;;16.10;65.40;;;;;;5002119;28;20094;-66
2022/04/02 04:43:50;;;;;;;12.38;9.48;;;16.10;66.00;;;;;;5002062;28;20029;-66
2022/04/02 04:46:17;;;;;;;16.40;10.93;;;16.10;65.40;;;;;;5002023;28;20034;-66
2022/04/02 04:48:43;;;;;;;14.35;10.80;;;16.10;66.10;;;;;;5002069;28;20081;-67
2022/04/02 04:51:10;;;;;;;12.38;10.18;;;16.00;65.90;;;;;;5001877;28;20026;-66
2022/04/02 04:53:36;;;;;;;16.33;11.50;;;16.00;65.50;;;;;;5001861;28;20022;-66
2022/04/02 04:56:03;;;;;;;13.40;9.65;;;16.00;65.40;;;;;;5002190;28;20022;-66
2022/04/02 04:58:29;;;;;;;14.30;9.90;;;16.00;65.10;;;;;;5001654;28;20195;-66
2022/04/02 05:00:56;;;;;;;14.88;10.40;;;16.10;65.40;;;;;;5001802;28;20029;-66
2022/04/02 05:03:26;;;;;;;16.95;10.13;;;16.10;65.40;;;;;;5001733;28;20022;-66
2022/04/02 05:05:56;;;;;;;12.95;10.07;;;16.10;65.40;;;;;;5001716;28;20032;-66
2022/04/02 05:08:23;;;;;;;15.00;10.18;;;16.10;65.20;;;;;;5001624;28;20026;-66
2022/04/02 05:10:50;;;;;;;16.75;10.13;;;16.10;65.10;;;;;;5001491;28;20260;-66
2022/04/02 05:13:16;;;;;;;15.32;10.52;;;16.10;65.50;;;;;;5001399;28;20048;-66
2022/04/02 05:15:43;;;;;;;15.82;10.65;;;16.10;65.20;;;;;;5001546;28;20245;-67
2022/04/02 05:18:10;;;;;;;15.35;10.73;;;16.00;66.70;;;;;;5001328;28;20034;-66
2022/04/02 05:20:38;;;;;;;14.82;10.60;;;15.90;65.50;;;;;;5001377;28;20014;-66
2022/04/02 05:23:05;;;;;;;17.95;9.73;;;16.00;65.50;;;;;;5001421;28;20026;-66
2022/04/02 05:25:33;;;;;;;12.52;9.93;;;16.00;65.30;;;;;;5001271;28;20093;-66
2022/04/02 05:28:06;;;;;;;14.40;9.60;;;16.10;65.20;;;;;;5001240;28;20030;-66
2022/04/02 05:30:37;;;;;;;14.32;10.23;;;16.10;65.20;;;;;;5001241;28;20041;-66
2022/04/02 05:33:03;;;;;;;17.92;10.18;;;16.20;65.30;;;;;;5001223;28;20601;-67
2022/04/02 05:35:28;;;;;;;13.93;10.35;;;16.10;64.90;;;;;;5001025;28;20030;-66
2022/04/02 05:37:54;;;;;;;14.10;9.80;;;16.10;64.60;;;;;;5001073;28;20026;-65
2022/04/02 05:40:20;;;;;;;15.93;11.02;;;16.10;64.80;;;;;;5000958;28;20257;-66
2022/04/02 05:42:47;;;;;;;14.50;9.73;;;16.10;64.80;;;;;;5000983;28;20022;-66
2022/04/02 05:45:13;;;;;;;15.38;10.27;;;16.10;64.60;;;;;;5001460;28;20065;-66
2022/04/02 05:47:50;;;;;;;15.48;10.30;;;16.10;64.60;;;;;;5000860;28;20025;-66
2022/04/02 05:50:17;;;;;;;14.55;10.25;;;16.10;66.50;;;;;;5000778;28;20348;-66
2022/04/02 05:52:43;;;;;;;15.05;10.20;;;16.00;67.50;;;;;;5000823;28;20410;-66
2022/04/02 05:55:10;;;;;;;19.27;11.07;;;15.90;64.80;;;;;;5000718;28;20081;-66
2022/04/02 05:57:40;;;;;;;13.45;10.07;;;16.00;64.70;;;;;;5000759;28;20372;-65
2022/04/02 06:00:08;;;;;;;16.50;10.43;;;16.00;64.70;;;;;;5000558;28;20054;-66
2022/04/02 06:02:34;;;;;;;14.98;9.88;;;16.10;64.90;;;;;;5000704;28;20230;-66
2022/04/02 06:05:01;;;;;;;15.50;10.52;;;16.10;64.80;;;;;;5000563;28;20379;-66
2022/04/02 06:07:27;;;;;;;12.75;9.00;;;16.20;65.10;;;;;;5000585;28;20030;-67
2022/04/02 06:09:52;;;;;;;14.35;9.80;;;16.10;64.80;;;;;;5000524;28;20124;-66
2022/04/02 06:12:18;;;;;;;16.08;10.77;;;16.10;64.70;;;;;;5000505;28;20034;-65
2022/04/02 06:14:44;;;;;;;13.82;9.93;;;16.20;65.00;;;;;;5000333;28;20050;-66
2022/04/02 06:17:10;;;;;;;18.30;9.95;;;16.20;64.90;;;;;;5000388;28;20449;-66
2022/04/02 06:19:35;;;;;;;17.42;10.27;;;16.20;64.80;;;;;;5000271;28;20034;-66
2022/04/02 06:22:06;;;;;;;14.88;10.57;;;16.20;64.80;;;;;;5000286;28;20027;-66
2022/04/02 06:24:35;;;;;;;14.80;10.23;;;16.20;65.00;;;;;;5000283;28;20049;-66
2022/04/02 06:27:01;;;;;;;13.85;10.35;;;16.20;64.80;;;;;;5000224;28;20018;-66
2022/04/02 06:29:27;;;;;;;12.60;9.05;;;16.20;64.50;;;;;;5000147;28;20089;-67
2022/04/02 06:31:53;;;;;;;13.32;9.50;;;16.20;64.70;;;;;;5000189;28;20097;-67
2022/04/02 06:34:19;;;;;;;13.88;9.77;;;16.20;64.50;;;;;;5000005;28;20030;-66
2022/04/02 06:36:45;;;;;;;15.45;9.80;;;16.20;64.40;;;;;;5000169;28;20254;-66
2022/04/02 06:39:12;;;;;;;13.70;9.23;;;16.10;63.80;;;;;;4999893;28;20030;-66
2022/04/02 06:41:38;;;;;;;13.63;9.25;;;16.20;64.20;;;;;;5000028;28;20026;-66
2022/04/02 06:44:07;;;;;;;14.30;10.25;;;16.10;64.10;;;;;;5000036;28;20026;-66
2022/04/02 06:46:32;;;;;;;;;;;16.10;64.50;;;;;;5000082;28;20099;-66
2022/04/02 06:48:58;;;;;;;16.23;10.05;;;16.20;64.40;;;;;;4999925;28;19914;-66
2022/04/02 06:51:26;;;;;;;12.85;10.13;;;16.10;64.10;;;;;;4999928;28;20053;-66
2022/04/02 06:53:51;;;;;;;14.85;10.27;;;16.20;64.50;;;;;;4999901;28;20031;-66
2022/04/02 06:56:18;;;;;;;13.20;9.48;;;16.20;64.90;;;;;;4999882;28;20338;-66
2022/04/02 06:58:44;;;;;;;14.02;8.93;;;16.20;64.60;;;;;;4999996;28;20057;-67
2022/04/02 07:01:10;;;;;;;16.05;9.90;;;16.20;64.90;;;;;;4999802;28;20034;-66
2022/04/02 07:03:37;;;;;;;11.52;9.20;;;16.10;64.60;;;;;;4999805;28;20088;-66
2022/04/02 07:06:03;;;;;;;13.02;9.68;;;16.20;64.70;;;;;;4999856;28;20030;-66
2022/04/02 07:08:29;;;;;;;12.82;10.18;;;16.20;64.50;;;;;;4999736;28;20030;-66
2022/04/02 07:10:55;;;;;;;13.32;9.65;;;16.20;64.30;;;;;;4999758;28;20037;-67
2022/04/02 07:13:21;;;;;;;14.57;9.73;;;16.20;64.40;;;;;;4999548;28;20069;-66
2022/04/02 07:15:47;;;;;;;17.15;10.43;;;16.10;64.40;;;;;;4999701;28;20102;-66
2022/04/02 07:18:12;;;;;;;11.93;9.75;;;16.20;64.40;;;;;;4999584;28;20058;-67
2022/04/02 07:20:39;;;;;;;17.67;10.30;;;16.10;64.30;;;;;;4998390;28;20022;-66
2022/04/02 07:23:09;;;;;;;15.77;10.13;;;16.20;64.40;;;;;;4999858;28;20035;-66
2022/04/02 07:25:39;;;;;;;12.90;9.75;;;16.10;64.30;;;;;;4999628;28;20309;-66
2022/04/02 07:28:06;;;;;;;15.25;10.98;;;16.20;64.40;;;;;;4999632;28;20120;-66
2022/04/02 07:30:34;;;;;;;17.23;10.23;;;16.10;64.60;;;;;;4999605;28;20073;-66
2022/04/02 07:33:01;;;;;;;14.98;10.40;;;16.10;64.10;;;;;;4999491;28;20045;-67
2022/04/02 07:35:54;;;;;;;13.68;10.25;;;16.20;64.40;;;;;;4999545;28;20030;-66
2022/04/02 07:38:22;;;;;;;15.32;9.85;;;16.10;64.40;;;;;;4997591;28;20042;-66
2022/04/02 07:40:57;;;;;;;15.43;10.13;;;16.20;64.20;;;;;;4999424;28;20073;-67
2022/04/02 07:43:36;;;;;;;13.00;9.48;;;16.10;64.30;;;;;;4999483;28;20029;-66
2022/04/02 07:46:05;;;;;;;12.63;9.95;;;16.10;64.20;;;;;;4999447;28;20026;-66
2022/04/02 07:48:34;;;;;;;13.18;9.35;;;16.20;64.50;;;;;;4999385;28;20229;-66
2022/04/02 07:51:04;;;;;;;;;;;16.20;63.90;;;;;;4999826;28;20030;-66
2022/04/02 07:53:36;;;;;;;13.80;9.50;;;16.20;64.40;;;;;;4999263;28;19916;-66
2022/04/02 07:56:04;;;;;;;13.85;10.55;;;16.10;64.20;;;;;;4999388;28;20027;-66
2022/04/02 07:58:38;;;;;;;12.85;9.68;;;16.20;64.10;;;;;;5000343;28;20038;-67
2022/04/02 08:01:05;;;;;;;14.00;9.45;;;16.20;64.10;;;;;;5002906;28;20030;-67
2022/04/02 08:03:31;;;;;;;11.55;9.25;;;16.20;64.00;;;;;;5002842;28;20053;-66
2022/04/02 08:05:58;;;;;;;13.85;9.65;;;16.20;64.30;;;;;;5002776;28;20026;-66
2022/04/02 08:08:25;;;;;;;13.82;9.57;;;16.20;64.30;;;;;;5002720;28;20101;-67
2022/04/02 08:10:55;;;;;;;13.52;9.77;;;16.20;64.30;;;;;;5002735;28;20020;-66
2022/04/02 08:13:21;;;;;;;12.93;9.65;;;16.20;64.40;;;;;;5002503;28;20053;-66
2022/04/02 08:15:51;;;;;;;13.65;10.07;;;16.20;64.60;;;;;;5002606;28;20064;-66
2022/04/02 08:18:21;;;;;;;17.95;10.32;;;16.20;64.40;;;;;;5002448;28;20249;-66
2022/04/02 08:20:49;;;;;;;12.85;9.77;;;16.20;64.00;;;;;;5002718;28;20030;-66
2022/04/02 08:23:15;;;;;;;14.57;10.35;;;16.20;64.00;;;;;;5001186;28;20284;-67
2022/04/02 08:25:59;;;;;;;12.70;9.30;;;16.20;64.00;;;;;;5002384;28;20018;-66
2022/04/02 08:29:02;;;;;;;13.10;10.30;;;16.10;64.00;;;;;;5002419;28;20026;-67
2022/04/02 08:31:57;;;;;;;14.90;9.27;;;16.20;64.40;;;;;;5000914;28;20030;-67
2022/04/02 08:34:41;;;;;;;14.88;9.20;;;16.20;64.30;;;;;;5002262;28;20030;-66
2022/04/02 08:37:24;;;;;;;13.80;9.82;;;16.20;64.10;;;;;;5002248;28;20126;-66
2022/04/02 08:39:58;;;;;;;12.95;9.73;;;16.10;63.90;;;;;;5002099;28;20034;-66
2022/04/02 08:42:53;;;;;;;11.25;9.23;;;16.20;64.30;;;;;;5002150;28;20026;-65
2022/04/02 08:45:28;;;;;;;12.95;9.75;;;16.20;64.00;;;;;;4997062;28;20042;-66
2022/04/02 08:47:53;;;;;;;13.70;9.27;;;16.20;64.20;;;;;;5001930;28;20029;-66
2022/04/02 08:50:29;;;;;;;12.40;9.35;;;16.20;64.10;;;;;;5001992;28;20018;-66
2022/04/02 08:53:17;;;;;;;12.43;9.55;;;16.20;64.40;;;;;;5002020;28;20026;-66
2022/04/02 08:56:10;;;;;;;13.07;9.52;;;16.20;64.00;;;;;;5001948;28;20365;-66
2022/04/02 08:58:38;;;;;;;14.45;9.95;;;16.20;64.10;;;;;;5000716;28;20049;-67
2022/04/02 09:01:06;;;;;;;;;;;16.20;64.10;;;;;;5002302;28;20019;-66
2022/04/02 09:03:35;;;;;;;13.32;9.05;;;16.10;63.30;;;;;;5001736;28;19939;-66
2022/04/02 09:06:29;;;;;;;12.55;9.75;;;16.10;63.80;;;;;;5001670;28;20030;-66
2022/04/02 09:09:11;;;;;;;11.10;9.07;;;16.20;64.10;;;;;;5001392;28;20113;-66
2022/04/02 09:11:46;;;;;;;11.88;9.27;;;16.20;64.20;;;;;;5001643;28;20125;-66
2022/04/02 09:14:36;;;;;;;13.68;9.45;;;16.20;64.40;;;;;;5001341;28;20054;-66
2022/04/02 09:17:10;;;;;;;14.73;9.80;;;16.20;64.10;;;;;;5001429;28;20030;-66
2022/04/02 09:19:44;;;;;;;15.30;10.00;;;16.20;64.20;;;;;;5001341;28;20045;-66
2022/04/02 09:22:34;;;;;;;13.65;9.77;;;16.20;64.20;;;;;;5001329;28;20053;-67
2022/04/02 09:25:37;;;;;;;12.75;10.10;;;16.20;64.30;;;;;;4999964;28;20022;-66
2022/04/02 09:28:41;;;;;;;12.45;9.05;;;16.20;64.30;;;;;;5001314;28;20049;-66
2022/04/02 09:31:27;;;;;;;13.45;9.43;;;16.20;64.30;;;;;;5001167;28;20038;-66
2022/04/02 09:34:15;;;;;;;13.90;9.73;;;16.20;64.20;;;;;;5001166;28;20297;-66
2022/04/02 09:37:08;;;;;;;12.48;9.68;;;16.20;64.00;;;;;;5001137;28;20069;-66
2022/04/02 09:40:05;;;;;;;12.10;9.30;;;16.20;64.00;;;;;;5001010;28;20057;-66
2022/04/02 09:42:46;;;;;;;10.05;8.88;;;16.20;64.10;;;;;;5000935;28;20061;-67
2022/04/02 09:45:21;;;;;;;14.32;10.25;;;16.20;63.90;;;;;;5001087;28;20030;-65
2022/04/02 09:48:17;;;;;;;12.63;8.95;;;16.20;64.20;;;;;;5000951;28;20022;-65
2022/04/02 09:50:45;;;;;;;14.82;9.70;;;16.20;64.10;;;;;;5000922;28;20029;-65
2022/04/02 09:53:19;;;;;;;13.90;9.02;;;16.20;64.20;;;;;;5000780;28;20073;-65
2022/04/02 09:56:08;;;;;;;14.10;9.52;;;16.20;64.00;;;;;;5000853;28;20049;-64
2022/04/02 09:59:02;;;;;;;14.70;9.57;;;16.20;64.40;;;;;;5000733;28;20026;-65
2022/04/02 10:01:38;;;;;;;12.50;9.73;;;16.20;64.40;;;;;;5000694;28;20057;-65
2022/04/02 10:04:47;;;;;;;14.52;9.55;;;16.20;64.30;;;;;;5000664;28;20038;-65
2022/04/02 10:07:38;;;;;;;12.77;9.75;;;16.20;64.10;;;;;;4997972;28;20034;-65
2022/04/02 10:10:07;;;;;;;12.75;9.38;;;16.30;64.30;;;;;;5000550;28;20054;-66
2022/04/02 10:12:37;;;;;;;12.35;8.98;;;16.30;64.00;;;;;;5000570;28;20089;-65
2022/04/02 10:15:03;;;;;;;13.80;9.57;;;16.20;63.90;;;;;;5000366;28;20345;-65
2022/04/02 10:17:31;;;;;;;13.15;10.60;;;16.20;63.60;;;;;;5000304;28;20341;-66
2022/04/02 10:19:58;;;;;;;13.13;9.93;;;16.20;63.70;;;;;;5000267;28;20037;-65
2022/04/02 10:22:44;;;;;;;10.75;9.05;;;16.20;64.40;;;;;;4999699;28;20037;-66
2022/04/02 10:25:13;;;;;;;10.00;8.63;;;16.20;64.10;;;;;;5000243;28;20030;-65
2022/04/02 10:27:42;;;;;;;14.40;9.43;;;16.20;64.00;;;;;;5000224;28;20030;-65
2022/04/02 10:30:12;;;;;;;;;;;16.20;63.80;;;;;;5000625;28;20102;-66
2022/04/02 10:32:57;;;;;;;12.90;9.43;;;16.20;63.60;;;;;;5000128;28;19988;-65
2022/04/02 10:35:25;;;;;;;13.98;9.65;;;16.20;63.90;;;;;;5000219;28;20052;-65
2022/04/02 10:37:59;;;;;;;13.43;9.23;;;16.30;64.20;;;;;;5000091;28;20336;-65
2022/04/02 10:40:29;;;;;;;14.18;9.35;;;16.30;63.70;;;;;;5000174;28;20055;-66
2022/04/02 10:43:02;;;;;;;13.63;9.95;;;16.30;64.10;;;;;;5000109;28;20065;-66
2022/04/02 10:45:29;;;;;;;11.50;8.73;;;16.20;64.00;;;;;;4999998;28;20069;-66
2022/04/02 10:48:14;;;;;;;14.30;9.30;;;16.20;63.90;;;;;;4999985;28;20030;-65
2022/04/02 10:50:44;;;;;;;13.18;9.63;;;16.20;64.00;;;;;;4999961;28;20199;-66
2022/04/02 10:53:13;;;;;;;12.20;8.65;;;16.20;63.80;;;;;;4999892;28;20026;-65
2022/04/02 10:55:45;;;;;;;14.13;9.88;;;16.20;64.20;;;;;;4998538;28;20346;-65
2022/04/02 10:58:12;;;;;;;12.20;9.35;;;16.20;63.80;;;;;;4999872;28;20034;-65
2022/04/02 11:00:44;;;;;;;12.00;9.73;;;16.20;63.80;;;;;;4999706;28;20032;-66
2022/04/02 11:03:27;;;;;;;13.20;9.18;;;16.20;64.10;;;;;;4999806;28;20310;-65
2022/04/02 11:05:53;;;;;;;12.25;9.63;;;16.20;63.80;;;;;;4999797;28;20026;-65
2022/04/02 11:08:22;;;;;;;16.67;10.25;;;16.20;63.90;;;;;;4999768;28;20025;-66
2022/04/02 11:10:48;;;;;;;11.43;8.70;;;16.20;63.50;;;;;;4999741;28;20061;-65
2022/04/02 11:13:29;;;;;;;12.27;9.30;;;16.20;63.80;;;;;;4999513;28;20294;-65
2022/04/02 11:15:55;;;;;;;12.00;9.13;;;16.20;64.00;;;;;;4999800;28;20065;-65
2022/04/02 11:18:21;;;;;;;14.73;9.98;;;16.20;63.60;;;;;;4999618;28;20050;-67
2022/04/02 11:21:00;;;;;;;11.75;8.65;;;16.30;63.70;;;;;;4999673;28;20041;-65
2022/04/02 11:23:53;;;;;;;12.82;9.40;;;16.30;63.80;;;;;;4999690;28;20026;-65
2022/04/02 11:26:20;;;;;;;12.48;9.48;;;16.20;63.80;;;;;;4999684;28;20037;-65
2022/04/02 11:28:52;;;;;;;13.98;9.55;;;16.20;63.80;;;;;;4999666;28;20026;-65
2022/04/02 11:31:27;;;;;;;14.00;9.50;;;16.30;63.60;;;;;;4999783;28;20030;-66
2022/04/02 11:33:53;;;;;;;10.88;8.73;;;16.20;64.00;;;;;;5003056;28;20555;-65
2022/04/02 11:36:36;;;;;;;11.60;9.45;;;16.20;63.80;;;;;;5003312;28;20041;-65
2022/04/02 11:39:03;;;;;;;12.32;9.85;;;16.30;63.80;;;;;;5003326;28;20026;-66
2022/04/02 11:41:38;;;;;;;15.40;9.93;;;16.30;63.90;;;;;;5003328;28;20316;-66
2022/04/02 11:44:11;;;;;;;13.07;9.88;;;16.20;63.90;;;;;;5003361;28;20033;-65
2022/04/02 11:47:03;;;;;;;11.48;9.20;;;16.20;64.00;;;;;;5003211;28;20045;-65
2022/04/02 11:49:28;;;;;;;12.60;9.23;;;16.30;63.80;;;;;;5003382;28;20030;-65
2022/04/02 11:52:17;;;;;;;11.75;9.43;;;16.30;64.00;;;;;;5003095;28;20029;-67
2022/04/02 11:54:49;;;;;;;10.90;8.65;;;16.20;64.00;;;;;;5000111;28;20260;-65
2022/04/02 11:57:16;;;;;;;10.93;8.98;;;16.30;64.10;;;;;;5003038;28;20030;-65
2022/04/02 11:59:53;;;;;;;15.85;10.23;;;16.20;63.80;;;;;;5002899;28;20037;-66
2022/04/02 12:02:35;;;;;;;13.23;9.48;;;16.20;63.80;;;;;;5003093;28;20030;-65
2022/04/02 12:05:02;;;;;;;11.43;9.35;;;16.20;63.20;;;;;;5002822;28;20018;-65
2022/04/02 12:07:48;;;;;;;13.10;9.05;;;16.20;63.50;;;;;;5002775;28;20054;-65
2022/04/02 12:10:15;;;;;;;13.02;9.63;;;16.20;63.00;;;;;;5002845;28;20022;-65
2022/04/02 12:12:45;;;;;;;14.00;9.90;;;16.20;63.40;;;;;;5002922;28;20058;-67
2022/04/02 12:15:12;;;;;;;12.50;9.65;;;16.20;63.60;;;;;;5002452;28;20061;-64
2022/04/02 12:17:39;;;;;;;12.25;9.75;;;16.20;63.30;;;;;;5002820;28;20096;-65
2022/04/02 12:20:10;;;;;;;13.60;9.95;;;16.20;63.10;;;;;;5002580;28;20041;-65
2022/04/02 12:22:39;;;;;;;10.93;9.05;;;16.20;63.80;;;;;;5002586;28;20034;-67
2022/04/02 12:25:13;;;;;;;14.02;9.95;;;16.20;63.70;;;;;;5002533;28;20018;-65
2022/04/02 12:27:39;;;;;;;13.18;9.32;;;16.30;63.40;;;;;;5002458;28;20075;-65
2022/04/02 12:30:07;;;;;;;11.73;9.02;;;16.30;63.80;;;;;;5002478;28;20034;-65
2022/04/02 12:32:41;;;;;;;10.98;8.95;;;16.30;63.60;;;;;;5002406;28;20034;-66
2022/04/02 12:35:11;;;;;;;11.18;9.35;;;16.20;63.90;;;;;;5002552;28;20034;-65
2022/04/02 12:37:51;;;;;;;11.65;8.80;;;16.30;63.80;;;;;;5002471;28;20073;-65
2022/04/02 12:40:22;;;;;;;11.80;8.88;;;16.20;63.70;;;;;;5002087;28;20030;-64
2022/04/02 12:42:52;;;;;;;14.10;10.02;;;16.30;63.90;;;;;;5002153;28;20093;-65
2022/04/02 12:45:21;;;;;;;13.52;9.60;;;16.20;63.90;;;;;;5001425;28;20026;-66
2022/04/02 12:48:20;;;;;;;15.43;9.60;;;16.20;63.80;;;;;;5002097;28;20073;-66
2022/04/02 12:51:02;;;;;;;11.65;9.27;;;16.20;63.50;;;;;;4990254;28;20038;-65